Time;durP1;ratioP1;P1;durP2;ratioP2;P2;SDS_P1;SDS_P2;PMS_P1;PMS_P2;Temp;Humidity;BMP_temperature;BMP_pressure;BME280_temperature;BME280_humidity;BME280_pressure;Samples;Min_cycle;Max_cycle;Signal;HPM_P1;HPM_P2
2021/10/08 00:00:07;;;;;;;11.15;8.43;;;;;;;19.85;32.98;101449.53;1736162;80;21501;-40
2021/10/08 00:02:40;;;;;;;13.55;8.83;;;;;;;19.84;32.99;101447.81;1734198;80;21121;-43
2021/10/08 00:05:08;;;;;;;11.70;7.97;;;;;;;19.85;33.01;101450.87;1732860;80;21116;-40
2021/10/08 00:07:35;;;;;;;11.53;8.05;;;;;;;19.84;33.08;101450.02;1714193;80;21178;-42
2021/10/08 00:10:01;;;;;;;9.73;8.18;;;;;;;19.84;33.08;101451.35;1731944;80;22245;-40
2021/10/08 00:12:27;;;;;;;10.58;8.10;;;;;;;19.84;33.12;101454.50;1732883;80;21089;-40
2021/10/08 00:14:54;;;;;;;10.58;8.38;;;;;;;19.82;33.13;101453.22;1734370;80;21039;-40
2021/10/08 00:17:21;;;;;;;10.30;8.18;;;;;;;19.82;33.18;101457.23;1733399;80;21072;-39
2021/10/08 00:19:48;;;;;;;10.70;7.97;;;;;;;19.82;33.21;101455.00;1728420;80;21082;-40
2021/10/08 00:22:14;;;;;;;10.03;8.00;;;;;;;19.82;33.27;101456.34;1733023;80;21095;-40
2021/10/08 00:24:40;;;;;;;8.68;7.25;;;;;;;19.83;33.29;101454.08;1726837;80;21114;-40
2021/10/08 00:27:07;;;;;;;10.08;7.60;;;;;;;19.83;33.30;101455.42;1712258;80;21068;-40
2021/10/08 00:29:33;;;;;;;10.88;8.33;;;;;;;19.82;33.37;101453.67;1706190;81;21117;-40
2021/10/08 00:31:59;;;;;;;10.05;7.03;;;;;;;19.83;33.37;101458.09;1714914;80;21003;-41
2021/10/08 00:34:26;;;;;;;10.60;7.67;;;;;;;19.85;33.36;101456.22;1708712;80;21030;-42
2021/10/08 00:36:53;;;;;;;8.68;7.53;;;;;;;19.84;33.40;101458.50;1730641;80;21591;-40
2021/10/08 00:39:19;;;;;;;9.13;6.55;;;;;;;19.85;33.42;101456.22;1732070;80;21027;-42
2021/10/08 00:41:46;;;;;;;10.00;7.30;;;;;;;19.84;33.43;101453.16;1703637;82;21050;-43
2021/10/08 00:44:13;;;;;;;7.50;6.37;;;;;;;19.85;33.44;101461.11;1734387;80;20968;-40
2021/10/08 00:46:39;;;;;;;8.08;6.87;;;;;;;19.85;33.48;101461.11;1726680;81;21528;-41
2021/10/08 00:49:06;;;;;;;9.23;6.58;;;;;;;19.84;33.48;101458.50;1732520;80;21075;-40
2021/10/08 00:51:32;;;;;;;8.80;6.40;;;;;;;19.84;33.49;101455.83;1737174;80;22180;-41
2021/10/08 00:53:59;;;;;;;10.88;7.30;;;;;;;19.83;33.52;101450.08;1732511;80;21105;-41
2021/10/08 00:56:25;;;;;;;6.92;6.10;;;;;;;19.83;33.56;101454.08;1734379;80;21433;-41
2021/10/08 00:58:52;;;;;;;9.53;7.00;;;;;;;19.82;33.60;101452.33;1707201;81;21097;-40
2021/10/08 01:01:19;;;;;;;7.25;6.55;;;;;;;19.81;33.60;101451.48;1712505;80;21102;-41
2021/10/08 01:03:45;;;;;;;8.70;6.95;;;;;;;19.82;33.65;101451.00;1734771;80;21840;-40
2021/10/08 01:06:12;;;;;;;6.95;6.00;;;;;;;19.82;33.69;101453.67;1705215;82;21056;-40
2021/10/08 01:08:39;;;;;;;7.22;6.20;;;;;;;19.82;33.69;101451.00;1733202;80;21420;-40
2021/10/08 01:11:06;;;;;;;8.73;6.60;;;;;;;19.80;33.68;101453.77;1719496;80;21014;-41
2021/10/08 01:13:35;;;;;;;8.15;6.08;;;;;;;19.80;33.72;101451.53;1715878;80;21102;-41
2021/10/08 01:16:04;;;;;;;8.48;6.10;;;;;;;19.81;33.77;101453.28;1705472;80;21062;-41
2021/10/08 01:18:32;;;;;;;8.50;5.85;;;;;;;19.81;33.77;101459.48;1732226;80;21181;-40
2021/10/08 01:20:59;;;;;;;7.92;6.12;;;;;;;19.81;33.78;101458.62;1735427;80;21023;-40
2021/10/08 01:23:25;;;;;;;6.80;5.75;;;;;;;19.82;33.80;101449.66;1732342;80;21026;-40
2021/10/08 01:25:53;;;;;;;7.40;6.00;;;;;;;19.81;33.84;101451.48;1733815;80;21592;-41
2021/10/08 01:28:23;;;;;;;6.95;5.72;;;;;;;19.80;33.82;101450.20;1726406;80;21596;-40
2021/10/08 01:30:50;;;;;;;9.43;6.53;;;;;;;19.80;33.85;101455.09;1740663;80;21136;-40
2021/10/08 01:33:19;;;;;;;7.35;5.65;;;;;;;19.81;33.87;101451.95;1730686;80;21086;-40
2021/10/08 01:35:47;;;;;;;6.20;5.25;;;;;;;19.82;33.91;101457.67;1730536;80;21540;-40
2021/10/08 01:38:14;;;;;;;6.72;5.17;;;;;;;19.82;33.90;101455.00;1705266;81;21161;-44
2021/10/08 01:40:40;;;;;;;6.62;5.62;;;;;;;19.82;33.95;101457.67;1732869;80;21567;-44
2021/10/08 01:43:08;;;;;;;6.65;5.83;;;;;;;19.83;33.92;101455.42;1722512;80;21805;-41
2021/10/08 01:45:35;;;;;;;6.58;5.40;;;;;;;19.82;33.93;101455.00;1729809;79;21031;-41
2021/10/08 01:48:02;;;;;;;9.10;5.55;;;;;;;19.82;33.94;101460.34;1722156;81;21111;-40
2021/10/08 01:50:30;;;;;;;5.90;5.28;;;;;;;19.81;33.95;101458.62;1701396;82;21047;-42
2021/10/08 01:52:59;;;;;;;6.70;5.05;;;;;;;19.80;34.01;101455.55;1730983;81;21015;-40
2021/10/08 01:55:26;;;;;;;7.45;5.75;;;;;;;19.79;34.06;101453.34;1730839;80;21071;-42
2021/10/08 01:57:54;;;;;;;7.75;5.10;;;;;;;19.81;34.05;101463.97;1709866;81;21051;-41
2021/10/08 02:00:22;;;;;;;8.65;5.22;;;;;;;19.82;34.02;101465.69;1725766;80;21169;-41
2021/10/08 02:02:50;;;;;;;7.30;5.10;;;;;;;19.81;34.08;101459.97;1732941;80;21050;-38
2021/10/08 02:05:18;;;;;;;7.00;5.30;;;;;;;19.79;34.08;101463.17;1725250;80;21101;-39
2021/10/08 02:07:47;;;;;;;6.83;5.10;;;;;;;19.80;34.12;101461.77;1739057;80;23260;-39
2021/10/08 02:10:15;;;;;;;8.23;5.08;;;;;;;19.81;34.13;101469.31;1687688;80;21031;-42
2021/10/08 02:12:41;;;;;;;5.92;5.12;;;;;;;19.80;34.12;101473.80;1738822;80;21197;-39
2021/10/08 02:15:09;;;;;;;6.78;5.00;;;;;;;19.81;34.14;101474.66;1733311;80;20994;-39
2021/10/08 02:17:36;;;;;;;7.67;5.45;;;;;;;19.79;34.16;101473.38;1701982;80;21726;-39
2021/10/08 02:20:05;;;;;;;8.10;5.20;;;;;;;19.79;34.17;101479.20;1674585;80;21117;-39
2021/10/08 02:22:33;;;;;;;8.33;5.35;;;;;;;19.78;34.21;101473.44;1714610;80;22157;-39
2021/10/08 02:25:01;;;;;;;9.23;6.72;;;;;;;19.78;34.20;101474.78;1691302;80;21513;-39
2021/10/08 02:27:28;;;;;;;8.85;5.25;;;;;;;19.78;34.21;101474.78;1726899;80;20997;-39
2021/10/08 02:29:57;;;;;;;7.55;4.90;;;;;;;19.78;34.21;101478.78;1735664;80;21102;-39
2021/10/08 02:32:23;;;;;;;10.32;5.40;;;;;;;19.76;34.21;101472.17;1709243;81;21099;-40
2021/10/08 02:34:50;;;;;;;8.00;5.25;;;;;;;19.78;34.23;101472.11;1733911;80;21232;-39
2021/10/08 02:37:17;;;;;;;8.08;5.58;;;;;;;19.76;34.24;101474.84;1733220;80;21071;-39
2021/10/08 02:39:43;;;;;;;7.53;4.87;;;;;;;19.75;34.26;101475.77;1725357;80;21087;-39
2021/10/08 02:42:11;;;;;;;7.10;4.80;;;;;;;19.76;34.28;101482.85;1727628;81;21003;-39
2021/10/08 02:44:39;;;;;;;6.75;5.08;;;;;;;19.75;34.29;101480.24;1731769;80;21194;-43
2021/10/08 02:47:06;;;;;;;7.30;4.60;;;;;;;19.75;34.30;101485.58;1733593;80;21059;-39
2021/10/08 02:49:33;;;;;;;6.58;4.53;;;;;;;19.74;34.30;101487.84;1735050;80;21564;-39
2021/10/08 02:52:00;;;;;;;5.78;4.55;;;;;;;19.74;34.33;101486.50;1730953;80;21031;-39
2021/10/08 02:54:27;;;;;;;7.15;4.70;;;;;;;19.74;34.34;101490.51;1735429;80;21172;-39
2021/10/08 02:56:53;;;;;;;7.95;5.20;;;;;;;19.74;34.38;101494.52;1732167;82;21148;-38
2021/10/08 02:59:20;;;;;;;7.25;4.80;;;;;;;19.72;34.37;101495.91;1733484;81;21614;-39
2021/10/08 03:01:46;;;;;;;7.12;4.83;;;;;;;19.72;34.41;101492.35;1730944;80;21035;-38
2021/10/08 03:04:14;;;;;;;7.90;5.05;;;;;;;19.71;34.44;101498.17;1723705;81;21889;-39
2021/10/08 03:06:41;;;;;;;7.45;4.95;;;;;;;19.71;34.45;101500.84;1700876;81;21062;-39
2021/10/08 03:09:08;;;;;;;5.37;4.40;;;;;;;19.72;34.45;101509.27;1733389;80;21823;-39
2021/10/08 03:11:36;;;;;;;8.83;4.70;;;;;;;19.72;34.51;101509.71;1686029;81;21070;-39
2021/10/08 03:14:04;;;;;;;6.75;4.53;;;;;;;19.71;34.49;101505.32;1729680;80;21561;-38
2021/10/08 03:16:31;;;;;;;6.78;5.30;;;;;;;19.71;34.50;101505.32;1733199;80;21055;-39
2021/10/08 03:18:58;;;;;;;6.92;4.70;;;;;;;19.71;34.53;101499.98;1731162;80;21041;-38
2021/10/08 03:21:25;;;;;;;6.50;4.42;;;;;;;19.71;34.54;101506.18;1707945;80;21975;-40
2021/10/08 03:23:52;;;;;;;6.25;4.95;;;;;;;19.72;34.53;101501.70;1729962;80;21024;-39
2021/10/08 03:26:20;;;;;;;6.22;4.17;;;;;;;19.71;34.54;101505.32;1730758;80;21107;-39
2021/10/08 03:28:47;;;;;;;7.60;4.55;;;;;;;19.70;34.59;101506.23;1729686;80;21165;-42
2021/10/08 03:31:14;;;;;;;4.72;4.20;;;;;;;19.71;34.59;101514.19;1732707;80;21125;-39
2021/10/08 03:33:41;;;;;;;6.08;4.78;;;;;;;19.70;34.58;101515.11;1733546;80;21030;-40
2021/10/08 03:36:12;;;;;;;5.37;4.22;;;;;;;19.70;34.61;101520.45;1737000;80;21015;-39
2021/10/08 03:38:36;;;;;;;6.33;4.35;;;;;;;19.70;34.59;101523.12;1709182;80;21098;-38
2021/10/08 03:43:30;;;;;;;5.53;4.45;;;;;;;19.71;34.62;101522.68;1735329;80;20976;-41
2021/10/08 03:46:00;;;;;;;5.72;4.17;;;;;;;19.69;34.63;101524.08;1732983;80;21750;-39
2021/10/08 03:51:02;;;;;;;7.72;4.50;;;;;;;19.68;34.66;101523.19;1731325;80;21059;-42
2021/10/08 03:53:31;;;;;;;5.95;3.85;;;;;;;19.70;34.65;101525.80;1732417;80;21011;-41
2021/10/08 03:55:57;;;;;;;6.55;3.85;;;;;;;19.70;34.66;101527.12;1707017;82;21125;-40
2021/10/08 03:58:24;;;;;;;9.65;4.30;;;;;;;19.70;34.67;101531.13;1725613;80;21108;-40
2021/10/08 04:00:51;;;;;;;6.50;4.22;;;;;;;19.71;34.67;101531.55;1732060;80;21559;-40
2021/10/08 04:03:19;;;;;;;7.08;4.33;;;;;;;19.70;34.70;101541.81;1731189;80;21141;-40
2021/10/08 04:05:45;;;;;;;5.00;3.58;;;;;;;19.68;34.69;101529.86;1732652;80;21544;-40
2021/10/08 04:08:13;;;;;;;4.72;3.75;;;;;;;19.70;34.68;101526.27;1734425;80;21160;-39
2021/10/08 04:10:42;;;;;;;6.55;4.28;;;;;;;19.71;34.70;101532.03;1731904;80;21319;-41
2021/10/08 04:13:08;;;;;;;6.95;4.12;;;;;;;19.71;34.73;101532.03;1691057;82;21149;-40
2021/10/08 04:15:36;;;;;;;7.78;4.25;;;;;;;19.71;34.71;101534.70;1689937;82;21055;-40
2021/10/08 04:18:03;;;;;;;13.95;4.17;;;;;;;19.71;34.79;101529.36;1674923;82;21079;-39
2021/10/08 04:20:30;;;;;;;6.42;4.20;;;;;;;19.71;35.15;101530.69;1666395;83;21219;-40
2021/10/08 04:22:56;;;;;;;8.65;4.12;;;;;;;19.70;35.30;101524.45;1669905;83;21069;-40
2021/10/08 04:25:23;;;;;;;5.67;4.05;;;;;;;19.70;35.34;101527.12;1660092;84;21056;-40
2021/10/08 04:27:50;;;;;;;4.30;3.60;;;;;;;19.71;35.47;101532.03;1656247;83;21751;-40
2021/10/08 04:30:17;;;;;;;6.22;3.62;;;;;;;19.72;35.51;101533.75;1658546;83;21069;-38
2021/10/08 04:32:44;;;;;;;7.17;4.00;;;;;;;19.73;35.63;101528.82;1660250;83;21087;-39
2021/10/08 04:35:11;;;;;;;8.88;4.25;;;;;;;19.76;35.62;101540.28;1671980;83;21122;-42
2021/10/08 04:37:38;;;;;;;6.40;3.55;;;;;;;19.78;35.68;101537.55;1638702;85;21028;-39
2021/10/08 04:40:06;;;;;;;8.70;3.60;;;;;;;19.80;35.66;101535.67;1669192;83;21666;-39
2021/10/08 04:42:34;;;;;;;10.53;4.10;;;;;;;19.82;35.70;101544.48;1692356;82;21039;-40
2021/10/08 04:45:01;;;;;;;9.40;3.90;;;;;;;19.84;35.86;101550.19;1698516;82;22094;-40
2021/10/08 04:47:30;;;;;;;7.95;4.05;;;;;;;19.85;35.89;101540.36;1684564;82;21232;-41
2021/10/08 04:49:57;;;;;;;13.90;4.95;;;;;;;19.84;35.83;101542.65;1689812;83;21321;-38
2021/10/08 04:52:24;;;;;;;18.07;6.60;;;;;;;19.82;33.83;101545.83;1685137;84;21067;-39
2021/10/08 04:54:51;;;;;;;16.87;5.58;;;;;;;19.63;32.98;101545.67;1668883;83;21033;-38
2021/10/08 04:57:17;;;;;;;20.97;6.83;;;;;;;19.38;32.50;101549.78;1693941;83;21083;-40
2021/10/08 04:59:44;;;;;;;22.15;7.17;;;;;;;19.13;32.01;101557.38;1659250;84;21172;-40
2021/10/08 05:02:11;;;;;;;21.93;7.47;;;;;;;18.90;32.31;101557.79;1658517;83;20983;-38
2021/10/08 05:04:38;;;;;;;22.95;7.35;;;;;;;18.71;31.62;101556.67;1667825;83;21035;-39
2021/10/08 05:07:05;;;;;;;23.22;6.60;;;;;;;18.51;31.41;101558.27;1731932;81;21090;-38
2021/10/08 05:09:33;;;;;;;17.65;6.08;;;;;;;18.34;31.72;101555.30;1730475;80;21008;-39
2021/10/08 05:12:01;;;;;;;20.85;6.35;;;;;;;18.31;32.80;101562.09;1727946;81;22060;-39
2021/10/08 05:14:28;;;;;;;17.27;5.83;;;;;;;18.40;33.49;101555.10;1735030;80;21104;-41
2021/10/08 05:16:54;;;;;;;17.77;5.75;;;;;;;18.60;33.88;101562.87;1676033;81;22399;-41
2021/10/08 05:19:23;;;;;;;15.30;5.70;;;;;;;18.75;34.01;101561.84;1740211;80;21000;-40
2021/10/08 05:21:54;;;;;;;18.37;5.92;;;;;;;18.90;34.01;101560.45;1729922;80;21521;-41
2021/10/08 05:24:21;;;;;;;15.28;5.55;;;;;;;19.02;34.17;101559.13;1716528;81;21228;-41
2021/10/08 05:26:51;;;;;;;17.20;5.85;;;;;;;19.14;34.14;101563.14;1730282;80;21015;-41
2021/10/08 05:29:18;;;;;;;14.18;5.30;;;;;;;19.24;33.96;101561.00;1732920;80;21110;-41
2021/10/08 05:31:45;;;;;;;13.48;5.67;;;;;;;19.33;33.86;101561.09;1733107;80;21185;-41
2021/10/08 05:34:12;;;;;;;19.87;5.70;;;;;;;19.39;33.62;101554.20;1730383;80;21077;-40
2021/10/08 05:36:43;;;;;;;9.70;4.72;;;;;;;19.45;33.55;101556.16;1728995;80;21793;-41
2021/10/08 05:39:10;;;;;;;10.90;5.85;;;;;;;19.50;33.53;101558.63;1733191;80;21618;-41
2021/10/08 05:41:37;;;;;;;16.50;5.83;;;;;;;19.54;33.47;101553.59;1735768;80;21070;-40
2021/10/08 05:44:05;;;;;;;16.48;5.62;;;;;;;19.58;33.31;101557.87;1724303;80;21127;-40
2021/10/08 05:46:35;;;;;;;16.82;5.65;;;;;;;19.62;33.23;101562.65;1707157;80;20990;-40
2021/10/08 05:49:01;;;;;;;16.17;5.80;;;;;;;19.66;33.18;101567.78;1730513;80;22259;-40
2021/10/08 05:51:30;;;;;;;14.50;5.42;;;;;;;19.70;33.08;101566.33;1685693;80;21141;-42
2021/10/08 05:53:57;;;;;;;15.95;6.00;;;;;;;19.72;32.92;101566.69;1732509;80;21058;-40
2021/10/08 05:56:24;;;;;;;17.37;5.80;;;;;;;19.75;33.01;101569.72;1730478;80;21570;-40
2021/10/08 05:58:51;;;;;;;14.58;5.30;;;;;;;19.79;33.18;101572.69;1727617;80;20987;-40
2021/10/08 06:01:18;;;;;;;17.98;6.80;;;;;;;19.83;33.09;101571.61;1726995;81;21104;-40
2021/10/08 06:03:44;;;;;;;16.30;6.25;;;;;;;19.86;32.99;101567.02;1729227;80;21483;-40
2021/10/08 06:06:13;;;;;;;17.12;5.92;;;;;;;19.92;32.89;101573.93;1723484;80;21553;-42
2021/10/08 06:08:39;;;;;;;21.12;7.65;;;;;;;19.96;32.80;101578.20;1715238;81;21035;-40
2021/10/08 06:11:09;;;;;;;19.82;7.15;;;;;;;19.96;31.22;101575.53;1711623;80;21640;-40
2021/10/08 06:13:35;;;;;;;17.70;6.70;;;;;;;19.91;30.95;101572.18;1713469;81;21038;-40
2021/10/08 06:16:04;;;;;;;16.95;6.65;;;;;;;19.89;31.45;101572.72;1730695;80;21648;-39
2021/10/08 06:18:32;;;;;;;17.57;6.50;;;;;;;19.88;32.01;101567.43;1715554;80;21587;-40
2021/10/08 06:20:58;;;;;;;18.92;6.40;;;;;;;19.88;32.24;101570.10;1705370;80;21082;-40
2021/10/08 06:23:26;;;;;;;15.53;6.15;;;;;;;19.90;32.47;101569.56;1737663;80;21123;-40
2021/10/08 06:25:53;;;;;;;17.35;6.10;;;;;;;19.93;32.64;101568.97;1729902;80;22781;-40
2021/10/08 06:28:20;;;;;;;41.02;17.23;;;;;;;19.96;32.93;101570.19;1724898;80;21058;-40
2021/10/08 06:30:49;;;;;;;22.07;10.45;;;;;;;19.96;31.91;101570.19;1730370;80;21624;-39
2021/10/08 06:33:17;;;;;;;20.75;9.20;;;;;;;19.97;32.54;101568.38;1719248;80;21082;-40
2021/10/08 06:35:46;;;;;;;21.17;8.88;;;;;;;19.97;32.72;101567.93;1716301;81;21062;-40
2021/10/08 06:38:13;;;;;;;20.80;8.83;;;;;;;19.98;33.06;101573.66;1732927;81;21199;-40
2021/10/08 06:40:40;;;;;;;17.85;8.00;;;;;;;20.00;33.31;101566.44;1732691;80;21165;-41
2021/10/08 06:43:09;;;;;;;17.57;8.58;;;;;;;20.03;33.56;101568.13;1707500;81;21003;-40
2021/10/08 06:45:40;;;;;;;16.82;8.70;;;;;;;20.06;33.77;101569.82;1730844;80;22339;-40
2021/10/08 06:48:08;;;;;;;17.73;7.80;;;;;;;20.08;33.97;101563.46;1733027;80;21713;-40
2021/10/08 06:50:37;;;;;;;21.20;8.95;;;;;;;20.12;34.13;101568.20;1706681;81;22117;-40
2021/10/08 06:53:03;;;;;;;20.97;8.30;;;;;;;20.14;34.25;101567.67;1723399;80;21114;-40
2021/10/08 06:55:31;;;;;;;30.45;9.20;;;;;;;20.13;32.62;101559.27;1704660;81;21137;-39
2021/10/08 06:57:59;;;;;;;27.37;9.55;;;;;;;20.09;33.25;101562.98;1730892;80;21015;-39
2021/10/08 07:00:27;;;;;;;29.35;9.10;;;;;;;20.08;33.58;101558.59;1727724;81;21065;-41
2021/10/08 07:02:54;;;;;;;31.93;8.93;;;;;;;20.11;33.68;101559.81;1725739;80;21190;-40
2021/10/08 07:05:23;;;;;;;29.87;9.18;;;;;;;20.13;33.88;101558.80;1705996;81;21031;-40
2021/10/08 07:07:51;;;;;;;25.77;9.70;;;;;;;20.17;33.83;101556.86;1729746;81;21094;-40
2021/10/08 07:10:19;;;;;;;26.23;8.28;;;;;;;20.20;33.89;101557.59;1740126;80;21047;-40
2021/10/08 07:12:49;;;;;;;28.12;8.30;;;;;;;20.21;31.57;101558.00;1727046;80;21082;-40
2021/10/08 07:15:20;;;;;;;21.57;8.28;;;;;;;20.12;29.51;101559.71;1737907;80;21210;-40
2021/10/08 07:17:48;;;;;;;24.30;8.15;;;;;;;19.97;29.37;101552.34;1732764;80;21031;-40
2021/10/08 07:20:22;;;;;;;28.75;9.25;;;;;;;19.89;30.39;101558.02;1727848;81;21094;-40
2021/10/08 07:22:49;;;;;;;27.40;9.63;;;;;;;19.90;31.13;101553.53;1731056;80;21099;-40
2021/10/08 07:25:18;;;;;;;26.27;9.75;;;;;;;19.94;31.63;101558.70;1744573;80;37875;-40
2021/10/08 07:27:46;;;;;;;28.07;10.40;;;;;;;20.00;31.97;101558.42;1743484;80;21101;-40
2021/10/08 07:30:14;;;;;;;27.05;10.75;;;;;;;20.08;32.23;101555.92;1743076;80;21077;-40
2021/10/08 07:32:41;;;;;;;30.05;11.50;;;;;;;20.15;32.46;101550.23;1733758;80;21070;-40
2021/10/08 07:35:09;;;;;;;37.00;12.95;;;;;;;20.22;32.72;101553.52;1732498;80;21007;-40
2021/10/08 07:37:35;;;;;;;39.58;13.05;;;;;;;20.29;33.07;101554.12;1703876;81;21070;-40
2021/10/08 07:40:03;;;;;;;36.63;14.25;;;;;;;20.34;33.33;101558.36;1739951;81;21760;-40
2021/10/08 07:42:35;;;;;;;44.27;15.28;;;;;;;20.38;33.52;101549.26;1725134;81;21132;-40
2021/10/08 07:45:04;;;;;;;46.73;15.75;;;;;;;20.46;34.03;101558.75;1735251;80;21051;-40
2021/10/08 07:47:31;;;;;;;46.63;16.73;;;;;;;20.54;34.29;101552.59;1693434;81;21117;-40
2021/10/08 07:49:58;;;;;;;48.25;17.65;;;;;;;20.61;34.50;101550.08;1722261;80;21655;-41
2021/10/08 07:52:24;;;;;;;51.30;17.00;;;;;;;20.70;34.64;101551.50;1723286;81;21114;-40
2021/10/08 07:54:52;;;;;;;44.33;17.60;;;;;;;20.77;34.73;101550.28;1724991;81;21075;-40
2021/10/08 07:57:19;;;;;;;44.45;16.73;;;;;;;20.81;34.84;101549.67;1728862;81;20961;-40
2021/10/08 07:59:46;;;;;;;44.35;17.70;;;;;;;20.85;34.79;101548.61;1707165;82;21542;-40
2021/10/08 08:02:13;;;;;;;46.90;17.17;;;;;;;20.88;34.81;101544.44;1736659;81;21032;-41
2021/10/08 08:04:39;;;;;;;49.40;17.35;;;;;;;20.90;34.81;101547.45;1724649;80;21830;-40
2021/10/08 08:07:06;;;;;;;52.05;16.23;;;;;;;20.94;34.81;101554.87;1731333;81;21099;-40
2021/10/08 08:09:32;;;;;;;45.03;17.48;;;;;;;20.97;34.80;101557.41;1721278;81;20907;-40
2021/10/08 08:12:01;;;;;;;47.03;16.10;;;;;;;21.02;34.77;101558.06;1698137;82;21085;-40
2021/10/08 08:14:28;;;;;;;41.85;16.05;;;;;;;21.05;34.77;101556.59;1708215;81;22266;-40
2021/10/08 08:16:57;;;;;;;44.40;17.57;;;;;;;21.09;34.68;101559.52;1737080;80;21183;-40
2021/10/08 08:19:25;;;;;;;44.77;17.00;;;;;;;21.13;34.69;101554.44;1729830;80;21864;-40
2021/10/08 08:21:51;;;;;;;46.00;17.52;;;;;;;21.17;34.71;101556.98;1735324;81;21047;-40
2021/10/08 08:24:17;;;;;;;42.38;15.68;;;;;;;21.19;34.73;101543.91;1742030;80;21115;-39
2021/10/08 08:26:45;;;;;;;43.50;16.27;;;;;;;21.23;34.68;101548.19;1732982;80;21030;-39
2021/10/08 08:29:11;;;;;;;39.23;14.80;;;;;;;21.27;34.71;101550.25;1710273;81;21138;-40
2021/10/08 08:31:38;;;;;;;49.67;16.87;;;;;;;21.30;34.64;101552.30;1734604;81;21022;-41
2021/10/08 08:34:04;;;;;;;38.08;14.93;;;;;;;21.34;34.61;101543.66;1740484;80;20981;-41
2021/10/08 08:36:32;;;;;;;41.90;15.98;;;;;;;21.38;34.60;101543.89;1739703;80;21550;-40
2021/10/08 08:39:03;;;;;;;39.00;15.50;;;;;;;21.43;34.60;101545.87;1736762;80;21042;-40
2021/10/08 08:41:27;;;;;;;36.98;14.60;;;;;;;21.46;34.57;101535.02;1708146;80;21046;-40
2021/10/08 08:43:53;;;;;;;42.20;14.70;;;;;;;21.50;34.55;101539.34;1736845;80;21042;-42
2021/10/08 08:46:20;;;;;;;41.42;15.23;;;;;;;21.54;34.51;101536.52;1726275;81;21075;-39
2021/10/08 08:48:46;;;;;;;37.53;14.63;;;;;;;21.58;34.43;101540.77;1732855;80;21182;-39
2021/10/08 08:51:14;;;;;;;47.70;15.65;;;;;;;21.62;34.38;101545.02;1715847;82;21061;-41
2021/10/08 08:53:41;;;;;;;38.92;16.42;;;;;;;21.63;34.61;101538.25;1738069;80;21168;-40
2021/10/08 08:56:07;;;;;;;54.13;17.10;;;;;;;21.65;35.18;101544.88;1717358;81;21039;-40
2021/10/08 08:58:35;;;;;;;47.33;16.42;;;;;;;21.65;35.36;101543.54;1730281;80;21383;-41
2021/10/08 09:01:03;;;;;;;48.80;16.57;;;;;;;21.66;35.37;101545.29;1725871;80;21130;-40
2021/10/08 09:03:30;;;;;;;52.75;16.85;;;;;;;21.68;35.36;101543.39;1734967;80;21079;-40
2021/10/08 09:06:00;;;;;;;46.83;15.23;;;;;;;21.70;35.41;101541.05;1734347;80;21117;-41
2021/10/08 09:08:34;;;;;;;42.80;16.05;;;;;;;21.72;35.26;101535.63;1736152;80;21083;-40
2021/10/08 09:11:05;;;;;;;46.88;14.80;;;;;;;21.76;35.23;101531.84;1712052;80;21101;-40
2021/10/08 09:13:30;;;;;;;45.10;15.95;;;;;;;21.79;35.05;101525.47;1736820;80;20999;-40
2021/10/08 09:15:59;;;;;;;41.68;15.23;;;;;;;21.81;34.94;101529.79;1711653;80;21057;-40
2021/10/08 09:18:27;;;;;;;39.25;15.00;;;;;;;21.82;34.82;101522.16;1702303;81;21805;-40
2021/10/08 09:21:08;;;;;;;40.03;14.73;;;;;;;21.83;34.74;101526.56;1738269;81;21074;-41
2021/10/08 09:23:46;;;;;;;47.05;14.83;;;;;;;21.86;34.90;101527.75;1729617;80;21078;-41
2021/10/08 09:26:25;;;;;;;44.90;15.05;;;;;;;21.86;35.00;101506.31;1719662;78;21159;-41
2021/10/08 09:28:55;;;;;;;37.63;14.50;;;;;;;21.89;35.10;101512.86;1669460;83;21590;-40
2021/10/08 09:31:43;;;;;;;42.62;14.78;;;;;;;21.92;35.13;101512.30;1686935;83;21144;-41
2021/10/08 09:34:16;;;;;;;55.75;29.67;;;;;;;21.93;35.16;101505.53;1641813;85;21125;-39
2021/10/08 09:36:48;;;;;;;21.75;9.75;;;;;;;21.95;33.03;101511.67;1676076;83;21901;-39
2021/10/08 09:39:22;;;;;;;21.02;8.18;;;;;;;21.87;26.80;101506.72;1633318;84;21063;-40
2021/10/08 09:42:02;;;;;;;22.20;9.03;;;;;;;21.44;24.27;101507.94;1645708;84;21835;-39
2021/10/08 09:44:30;;;;;;;17.50;7.15;;;;;;;20.95;24.90;101509.79;1667481;83;21204;-39
2021/10/08 09:47:21;;;;;;;13.18;6.12;;;;;;;20.66;25.81;101502.62;1648748;84;22372;-40
2021/10/08 09:49:50;;;;;;;16.95;3.50;;;;;;;20.50;24.95;101501.54;1677572;83;21054;-39
2021/10/08 09:52:31;;;;;;;13.78;2.95;;;;;;;20.23;24.22;101504.48;1675041;83;21056;-39
2021/10/08 09:55:07;;;;;;;11.28;2.70;;;;;;;19.98;23.45;101509.53;1626838;85;21041;-39
2021/10/08 09:57:51;;;;;;;8.50;2.37;;;;;;;19.72;23.78;101504.37;1672331;84;21228;-40
2021/10/08 10:00:37;;;;;;;9.13;2.50;;;;;;;19.59;23.80;101489.34;1664728;83;21056;-38
2021/10/08 11:34:54;;;;;;;17.73;3.00;;;;;;;21.57;28.24;101439.47;1782000;77;947735;-38
2021/10/08 11:37:22;;;;;;;12.30;3.12;;;;;;;21.62;28.30;101437.42;1762595;80;21516;-38
2021/10/08 11:39:50;;;;;;;8.33;2.60;;;;;;;21.65;28.14;101432.37;1735617;80;21434;-38
2021/10/08 11:42:19;;;;;;;10.85;2.92;;;;;;;21.65;27.49;101435.05;1759069;80;21128;-38
2021/10/08 11:45:08;;;;;;;14.30;2.42;;;;;;;21.60;26.88;101437.09;1748605;80;21047;-38
2021/10/08 11:47:37;;;;;;;10.78;2.35;;;;;;;21.55;26.88;101441.81;1739673;80;21134;-38
2021/10/08 11:50:26;;;;;;;9.33;2.33;;;;;;;21.51;27.59;101430.39;1737066;81;21633;-38
2021/10/08 11:52:45;;;;;;;3.90;2.25;;;;;;;21.48;27.30;101441.25;1732598;80;21167;-39
2021/10/08 11:55:22;;;;;;;8.83;2.40;;;;;;;21.45;27.62;101444.04;1773805;80;21142;-39
2021/10/08 11:58:03;;;;;;;7.92;1.77;;;;;;;21.44;27.61;101445.00;1766053;80;21043;-38
2021/10/08 12:00:41;;;;;;;7.40;3.37;;;;;;;21.42;26.92;101449.09;1726603;81;20995;-39
2021/10/08 12:03:11;;;;;;;9.80;2.47;;;;;;;21.36;24.20;101446.70;1760262;79;21078;-38
2021/10/08 12:05:58;;;;;;;9.40;2.35;;;;;;;21.20;22.88;101441.70;1763394;79;21791;-39
2021/10/08 12:08:36;;;;;;;4.10;2.22;;;;;;;21.03;22.98;101442.51;1757578;80;21693;-38
2021/10/08 12:11:08;;;;;;;8.28;2.30;;;;;;;20.88;22.46;101445.44;1736711;80;21002;-38
2021/10/08 12:13:37;;;;;;;4.40;2.17;;;;;;;20.70;22.57;101445.37;1738478;80;21148;-37
2021/10/08 12:16:04;;;;;;;3.80;2.20;;;;;;;20.59;24.18;101446.28;1742362;80;21048;-38
2021/10/08 12:18:31;;;;;;;4.62;2.10;;;;;;;20.57;23.94;101457.05;1763872;79;21084;-39
2021/10/08 12:21:15;;;;;;;5.25;2.05;;;;;;;20.45;21.88;101447.41;1731584;80;21150;-39
2021/10/08 12:23:43;;;;;;;7.12;1.85;;;;;;;20.23;22.19;101438.52;1760056;79;22155;-38
2021/10/08 12:26:10;;;;;;;8.45;1.47;;;;;;;20.10;22.20;101445.82;1756607;79;21159;-39
2021/10/08 12:28:37;;;;;;;8.80;2.10;;;;;;;19.96;21.30;101444.61;1731812;80;21583;-38
2021/10/08 12:31:10;;;;;;;9.05;2.40;;;;;;;19.80;21.62;101438.18;1760264;79;21099;-38
2021/10/08 12:33:43;;;;;;;6.00;1.90;;;;;;;19.65;21.45;101447.67;1760270;79;21190;-38
2021/10/08 12:36:28;;;;;;;8.08;2.15;;;;;;;19.56;21.41;101449.41;1737317;80;21047;-38
2021/10/08 12:39:06;;;;;;;;;;;;;;;19.41;20.84;101439.74;1757870;80;21489;-38
2021/10/08 12:41:52;;;;;;;5.42;1.90;;;;;;;19.24;20.61;101443.09;1746067;80;20160;-38
2021/10/08 12:44:23;;;;;;;10.53;2.55;;;;;;;19.03;20.80;101435.94;1764432;80;21064;-39
2021/10/08 12:47:12;;;;;;;4.25;2.05;;;;;;;18.83;21.33;101441.60;1733371;80;21025;-38
2021/10/08 12:49:56;;;;;;;4.20;1.80;;;;;;;18.72;21.52;101446.43;1741919;79;21064;-38
2021/10/08 12:52:50;;;;;;;5.30;2.10;;;;;;;18.66;21.54;101435.98;1760406;80;21083;-39
2021/10/08 12:55:25;;;;;;;3.72;2.10;;;;;;;18.65;22.44;101432.94;1727112;81;21055;-38
2021/10/08 12:58:14;;;;;;;5.90;1.73;;;;;;;18.74;23.13;101421.46;1711545;81;21715;-38
2021/10/08 13:00:49;;;;;;;3.75;1.92;;;;;;;18.89;23.41;101426.67;1717278;81;21881;-38
2021/10/08 13:03:35;;;;;;;11.85;2.02;;;;;;;19.04;23.70;101423.02;1687764;81;21108;-38